createdAt,value
2023-02-23T00:01:17.274Z,74.75
2023-02-23T00:07:21.904Z,77.18
2023-02-23T00:13:23.578Z,84.45
2023-02-23T00:19:25.896Z,73.43
2023-02-23T00:25:31.067Z,80.85
2023-02-23T00:31:34.085Z,86.95
2023-02-23T00:37:36.185Z,89.80
2023-02-23T00:43:47.629Z,91.30
2023-02-23T00:49:49.430Z,90.93
2023-02-23T00:55:51.170Z,89.40
2023-02-23T01:01:53.044Z,92.63
2023-02-23T01:07:56.197Z,96.60
2023-02-23T01:13:59.991Z,110.82
2023-02-23T01:20:01.898Z,109.72
2023-02-23T01:26:04.008Z,107.75
2023-02-23T01:32:06.991Z,110.10
2023-02-23T01:38:08.860Z,114.80
2023-02-23T01:44:13.569Z,112.03
2023-02-23T01:50:16.757Z,111.45
2023-02-23T01:56:24.464Z,116.82
2023-02-23T02:02:33.444Z,123.07
2023-02-23T02:08:45.058Z,124.22
2023-02-23T02:14:46.932Z,121.47
2023-02-23T02:21:24.153Z,112.00
2023-02-23T02:27:44.964Z,116.07
2023-02-23T02:34:00.185Z,120.40
2023-02-23T02:40:27.077Z,121.25
2023-02-23T02:46:34.914Z,114.35
2023-02-23T02:52:52.355Z,121.68
2023-02-23T02:58:54.728Z,130.35
2023-02-23T03:05:15.351Z,117.43
2023-02-23T03:11:36.328Z,114.57
2023-02-23T03:18:49.400Z,106.35
2023-02-23T03:25:18.691Z,112.88
2023-02-23T03:31:56.085Z,111.97
2023-02-23T03:38:24.719Z,102.97
2023-02-23T03:44:56.686Z,100.88
2023-02-23T03:51:23.646Z,100.55
2023-02-23T03:57:48.574Z,114.25
2023-02-23T04:04:11.811Z,104.25
2023-02-23T04:10:32.109Z,117.55
2023-02-23T04:16:34.764Z,117.30
2023-02-23T04:22:36.604Z,117.00
2023-02-23T04:28:38.417Z,115.80
2023-02-23T04:34:40.254Z,118.00
2023-02-23T04:40:42.063Z,98.78
2023-02-23T04:46:43.859Z,95.43
2023-02-23T04:52:45.898Z,102.43
2023-02-23T04:58:47.690Z,106.65
2023-02-23T05:04:49.521Z,107.88
2023-02-23T05:10:51.313Z,97.45
2023-02-23T05:16:53.109Z,89.05
2023-02-23T05:22:54.841Z,97.22
2023-02-23T05:28:57.105Z,87.97
2023-02-23T05:35:02.505Z,96.18
2023-02-23T05:41:06.253Z,117.07
2023-02-23T05:47:08.025Z,123.38
2023-02-23T05:53:10.421Z,119.43
2023-02-23T05:59:13.277Z,115.07
2023-02-23T06:05:15.652Z,115.88
2023-02-23T06:11:17.887Z,95.85
2023-02-23T06:17:19.970Z,96.78
2023-02-23T06:23:22.166Z,97.10
2023-02-23T06:29:24.030Z,116.70
2023-02-23T06:35:27.245Z,104.95
2023-02-23T06:41:29.130Z,121.75
2023-02-23T06:47:30.925Z,111.70
2023-02-23T06:53:33.645Z,109.90
2023-02-23T06:59:36.662Z,114.97
2023-02-23T07:05:38.511Z,103.38
2023-02-23T07:11:41.643Z,108.93
2023-02-23T07:17:44.097Z,128.65
2023-02-23T07:23:47.928Z,103.60
2023-02-23T07:29:49.802Z,104.55
2023-02-23T07:35:52.131Z,89.05
2023-02-23T07:41:53.917Z,106.00
2023-02-23T07:47:59.342Z,96.20
2023-02-23T07:54:05.471Z,89.70
2023-02-23T08:00:07.765Z,86.10
2023-02-23T08:06:16.687Z,85.97
2023-02-23T08:12:18.547Z,77.38
2023-02-23T08:18:20.638Z,82.25
2023-02-23T08:24:22.987Z,81.32
2023-02-23T08:30:24.923Z,72.35
2023-02-23T08:36:26.894Z,75.50
2023-02-23T08:42:28.848Z,66.93
2023-02-23T08:48:30.634Z,68.32
2023-02-23T08:54:32.372Z,76.88
2023-02-23T09:00:34.235Z,72.18
2023-02-23T09:06:37.401Z,71.72
2023-02-23T09:12:39.170Z,75.38
2023-02-23T09:18:40.943Z,69.78
2023-02-23T09:24:42.833Z,76.60
2023-02-23T09:30:45.590Z,83.00
2023-02-23T09:36:47.438Z,81.00
2023-02-23T09:43:00.984Z,86.18
2023-02-23T09:49:05.635Z,80.20
2023-02-23T09:55:10.454Z,81.28
2023-02-23T10:01:24.528Z,91.13
2023-02-23T10:07:48.954Z,90.60
2023-02-23T10:14:12.184Z,86.90
2023-02-23T10:20:23.351Z,101.03
2023-02-23T10:26:44.015Z,115.97
2023-02-23T10:32:49.483Z,121.45
2023-02-23T10:38:51.278Z,126.85
2023-02-23T10:44:53.002Z,142.32
2023-02-23T10:51:02.751Z,153.20
2023-02-23T10:57:07.163Z,149.35
2023-02-23T11:03:27.643Z,161.63
2023-02-23T11:09:45.035Z,155.10
2023-02-23T11:15:51.008Z,148.85
2023-02-23T11:21:53.210Z,151.70
2023-02-23T11:27:56.987Z,144.40
2023-02-23T11:33:59.092Z,140.75
2023-02-23T11:40:03.082Z,131.40
2023-02-23T11:46:05.572Z,137.13
2023-02-23T11:52:17.041Z,141.00
2023-02-23T11:58:24.247Z,127.82
2023-02-23T12:04:33.400Z,128.35
2023-02-23T12:10:41.782Z,122.43
2023-02-23T12:16:52.046Z,120.20
2023-02-23T12:23:02.473Z,106.65
2023-02-23T12:29:18.955Z,117.22
2023-02-23T12:35:30.185Z,117.22
2023-02-23T12:41:38.841Z,117.03
2023-02-23T12:47:49.237Z,117.35
2023-02-23T12:53:53.013Z,119.65
2023-02-23T13:00:30.333Z,116.43
2023-02-23T13:06:50.692Z,130.57
2023-02-23T13:13:03.033Z,119.97
2023-02-23T13:19:33.980Z,112.35
2023-02-23T13:25:51.046Z,118.72
2023-02-23T13:31:53.599Z,129.10
2023-02-23T13:38:04.027Z,116.82
2023-02-23T13:44:22.568Z,129.38
2023-02-23T13:50:48.434Z,124.85
2023-02-23T13:56:55.321Z,121.18
2023-02-23T14:02:57.548Z,126.40
2023-02-23T14:09:29.195Z,118.68
2023-02-23T14:15:40.248Z,121.53
2023-02-23T14:21:56.106Z,125.60
2023-02-23T14:28:02.676Z,118.20
2023-02-23T14:34:12.878Z,124.70
2023-02-23T14:40:26.136Z,122.82
2023-02-23T14:46:28.299Z,117.68
2023-02-23T14:52:35.119Z,117.03
2023-02-23T14:58:36.889Z,117.20
2023-02-23T15:04:39.568Z,118.38
2023-02-23T15:10:47.709Z,121.18
2023-02-23T15:16:51.041Z,118.82
2023-02-23T15:22:55.263Z,117.43
2023-02-23T15:29:23.093Z,121.80
2023-02-23T15:35:25.621Z,126.32
2023-02-23T15:41:35.984Z,129.30
2023-02-23T15:47:38.040Z,115.05
2023-02-23T15:53:41.032Z,83.28
2023-02-23T15:59:47.841Z,80.90
2023-02-23T16:06:06.798Z,63.22
2023-02-23T16:12:17.905Z,59.55
2023-02-23T16:18:26.719Z,50.15
2023-02-23T16:24:29.467Z,48.28
2023-02-23T16:30:31.253Z,45.85
2023-02-23T16:36:41.024Z,39.15
2023-02-23T16:42:42.951Z,35.85
2023-02-23T16:48:44.791Z,35.38
2023-02-23T16:54:48.536Z,35.25
2023-02-23T17:00:51.876Z,40.50
2023-02-23T17:06:58.345Z,45.22
2023-02-23T17:13:06.300Z,55.35
2023-02-23T17:19:08.055Z,50.38
2023-02-23T17:25:10.958Z,56.60
2023-02-23T17:31:13.831Z,62.05
2023-02-23T17:37:15.591Z,58.55
2023-02-23T17:43:17.375Z,66.72
2023-02-23T17:49:19.338Z,65.60
2023-02-23T17:55:22.105Z,67.28
2023-02-23T18:01:24.293Z,59.95
2023-02-23T18:07:26.264Z,64.68
2023-02-23T18:13:29.219Z,60.22
2023-02-23T18:19:31.558Z,60.30
2023-02-23T18:25:33.361Z,63.72
2023-02-23T18:31:35.340Z,132.13
2023-02-23T18:37:37.167Z,81.80
2023-02-23T18:43:39.110Z,64.05
2023-02-23T18:50:06.774Z,63.03
2023-02-23T18:56:11.320Z,66.82
2023-02-23T19:02:13.040Z,56.92
2023-02-23T19:08:15.717Z,56.78
2023-02-23T19:14:21.979Z,60.13
2023-02-23T19:20:32.787Z,52.88
2023-02-23T19:26:37.194Z,45.50
2023-02-23T19:32:39.932Z,46.05
2023-02-23T19:38:45.627Z,47.38
2023-02-23T19:44:47.388Z,48.17
2023-02-23T19:50:49.524Z,52.00
2023-02-23T19:56:51.628Z,53.67
2023-02-23T20:02:56.588Z,54.35
2023-02-23T20:08:58.982Z,54.17
2023-02-23T20:15:01.408Z,64.13
2023-02-23T20:21:10.687Z,59.53
2023-02-23T20:27:12.467Z,57.45
2023-02-23T20:33:15.211Z,55.15
2023-02-23T20:39:20.344Z,65.72
2023-02-23T20:45:24.176Z,64.10
2023-02-23T20:51:26.424Z,63.35
2023-02-23T20:57:29.529Z,65.18
2023-02-23T21:03:31.340Z,68.80
2023-02-23T21:09:33.240Z,66.93
2023-02-23T21:15:35.658Z,68.88
2023-02-23T21:21:49.242Z,66.85
2023-02-23T21:27:51.544Z,64.63
2023-02-23T21:33:53.293Z,70.30
2023-02-23T21:39:55.120Z,73.95
2023-02-23T21:45:56.912Z,73.60
2023-02-23T21:51:58.898Z,72.88
2023-02-23T21:58:00.737Z,76.65
2023-02-23T22:04:04.760Z,82.57
2023-02-23T22:10:06.687Z,80.15
2023-02-23T22:16:08.744Z,74.05
2023-02-23T22:22:10.514Z,77.75
2023-02-23T22:28:12.281Z,57.83
2023-02-23T22:34:14.386Z,34.42
2023-02-23T22:40:16.662Z,22.10
2023-02-23T22:46:18.824Z,33.58
2023-02-23T22:52:20.621Z,30.67
2023-02-23T22:58:26.444Z,26.65
2023-02-23T23:04:28.362Z,31.15
2023-02-23T23:10:30.226Z,30.90
2023-02-23T23:16:34.284Z,27.63
2023-02-23T23:22:36.195Z,29.27
2023-02-23T23:28:40.656Z,31.00
2023-02-23T23:34:44.447Z,31.23
2023-02-23T23:40:46.968Z,35.53
2023-02-23T23:46:52.823Z,34.08
2023-02-23T23:52:54.719Z,40.90
2023-02-23T23:58:58.812Z,36.60
